Enter the Airport ICAO Code

Search by Airport or City

Current Weather

LEVC | Valencia Airport

Valencia, Valencian Community, Spain

Last Update 12 Minutes Ago

Clear Sky

Temperature of 11 ēC

Light to Moderate Winds from NorthWest

Temperature

11 ēC

Dew Point Temperature

09 ēC

Relative Humidity

87.52 %

Wind Direction

NorthWest (300ē, Without Significant Variations)

Wind Velocity

9 km/h (05 kt)

Gusts

None

Visibility

No Significant Reductions

Sea Level Pressure

1026 hPa (Hectopascals)

Layers of Clouds

None

METAR LEVC 290000Z 30005KT CAVOK 11/09 Q1026 NOSIG

Weather Forecast

LEVC | Valencia Airport

Valencia, Valencian Community, Spain

Forecast valid for the next 24 Hours

From now on it is expected:

Clear Sky

Light to Moderate Winds from Variable Directions

In 8 hours it is expected the begining of 2 hours with intermittent periods of:

Light to Moderate Winds from SouthEast

In 10 to 12 hours it is expected the begining of:

Light to Moderate Winds from East

In 18 hours it is expected the begining of 2 hours with intermittent periods of:

Light to Moderate Winds from NorthEast

In 20 to 22 hours it is expected the begining of:

Light Winds from Variable Directions

Maximum Temperature

22 ēC in 12 Hours

Minimum Temperature

07 ēC in 6 Hours

TAF LEVC 282300Z 2900/2924 VRB05KT CAVOK TX22/2912Z TN07/2906Z TEMPO 2908/2910 15007KT BECMG 2910/2912 11009KT TEMPO 2918/2920 03007KT BECMG 2920/2922 VRB04KT